createdAt,value
2019-02-24T00:00:09.519Z,103643.53
2019-02-24T00:02:40.249Z,103647.25
2019-02-24T00:05:09.700Z,103649.68
2019-02-24T00:07:38.820Z,103644.47
2019-02-24T00:10:08.190Z,103641.52
2019-02-24T00:12:37.307Z,103642.70
2019-02-24T00:15:08.266Z,103649.41
2019-02-24T00:17:37.385Z,103640.51
2019-02-24T00:20:07.472Z,103645.28
2019-02-24T00:22:36.592Z,103642.77
2019-02-24T00:25:05.767Z,103641.59
2019-02-24T00:27:34.899Z,103637.44
2019-02-24T00:30:06.422Z,103641.66
2019-02-24T00:32:35.543Z,103636.45
2019-02-24T00:35:05.592Z,103631.11
2019-02-24T00:37:34.713Z,103633.34
2019-02-24T00:40:05.270Z,103630.03
2019-02-24T00:42:34.656Z,103626.80
2019-02-24T00:45:04.405Z,103629.77
2019-02-24T00:47:33.592Z,103629.42
2019-02-24T00:50:02.950Z,103628.66
2019-02-24T00:52:33.035Z,103630.45
2019-02-24T00:55:02.148Z,103621.87
2019-02-24T00:57:31.264Z,103623.66
2019-02-24T01:00:00.381Z,103611.64
2019-02-24T01:02:29.507Z,103613.34
2019-02-24T01:04:58.627Z,103609.25
2019-02-24T01:07:27.751Z,103605.66
2019-02-24T01:09:56.902Z,103617.25
2019-02-24T01:12:26.025Z,103612.75
2019-02-24T01:14:55.145Z,103611.45
2019-02-24T01:17:25.240Z,103607.55
2019-02-24T01:19:54.362Z,103610.24
2019-02-24T01:22:23.489Z,103616.41
2019-02-24T01:24:52.602Z,103606.17
2019-02-24T01:27:21.724Z,103608.69
2019-02-24T01:29:50.845Z,103599.23
2019-02-24T01:32:19.972Z,103599.72
2019-02-24T01:34:49.354Z,103599.85
2019-02-24T01:37:18.770Z,103600.44
2019-02-24T01:39:47.886Z,103601.52
2019-02-24T01:42:17.023Z,103607.62
2019-02-24T01:44:46.455Z,103603.13
2019-02-24T01:47:15.572Z,103604.97
2019-02-24T01:49:44.686Z,103597.11
2019-02-24T01:52:14.054Z,103592.00
2019-02-24T01:54:44.142Z,103595.91
2019-02-24T01:57:13.273Z,103587.20
2019-02-24T01:59:42.389Z,103588.38
2019-02-24T02:02:11.504Z,103587.47
2019-02-24T02:04:40.619Z,103590.70
2019-02-24T02:07:09.738Z,103586.84
2019-02-24T02:09:38.858Z,103585.76
2019-02-24T02:12:11.181Z,103580.74
2019-02-24T02:14:40.348Z,103585.55
2019-02-24T02:17:09.420Z,103579.75
2019-02-24T02:19:39.509Z,103576.56
2019-02-24T02:22:08.620Z,103582.58
2019-02-24T02:24:38.051Z,103582.94
2019-02-24T02:27:07.441Z,103576.34
2019-02-24T02:29:37.062Z,103573.16
2019-02-24T02:32:06.181Z,103577.46
2019-02-24T02:34:35.297Z,103580.42
2019-02-24T02:37:04.416Z,103581.95
2019-02-24T02:39:33.536Z,103574.82
2019-02-24T02:42:03.043Z,103582.35
2019-02-24T02:44:32.174Z,103579.63
2019-02-24T02:47:02.269Z,103583.52
2019-02-24T02:49:31.387Z,103586.66
2019-02-24T02:52:00.507Z,103579.03
2019-02-24T02:54:29.686Z,103576.61
2019-02-24T02:56:58.825Z,103582.98
2019-02-24T02:59:27.948Z,103574.91
2019-02-24T03:01:58.112Z,103569.61
2019-02-24T03:04:27.235Z,103576.30
2019-02-24T03:07:13.938Z,103574.69
2019-02-24T03:09:43.064Z,103577.47
2019-02-24T03:12:12.484Z,103574.81
2019-02-24T03:14:41.610Z,103576.70
2019-02-24T03:17:10.732Z,103573.06
2019-02-24T03:19:39.860Z,103570.69
2019-02-24T03:22:08.985Z,103574.59
2019-02-24T03:24:38.199Z,103575.71
2019-02-24T03:27:07.314Z,103578.58
2019-02-24T03:29:36.438Z,103573.15
2019-02-24T03:32:05.599Z,103577.05
2019-02-24T03:34:34.703Z,103578.53
2019-02-24T03:37:03.844Z,103584.45
2019-02-24T03:39:33.307Z,103585.44
2019-02-24T03:42:02.431Z,103576.33
2019-02-24T03:44:31.556Z,103581.63
2019-02-24T03:47:00.680Z,103578.13
2019-02-24T03:49:29.795Z,103581.53
2019-02-24T03:51:59.249Z,103584.58
2019-02-24T03:54:28.479Z,103581.53
2019-02-24T03:56:57.617Z,103584.91
2019-02-24T03:59:26.769Z,103578.98
2019-02-24T04:01:55.946Z,103585.30
2019-02-24T04:04:25.067Z,103579.28
2019-02-24T04:06:54.412Z,103584.48
2019-02-24T04:09:24.607Z,103586.86
2019-02-24T04:11:53.724Z,103592.78
2019-02-24T04:14:23.167Z,103600.99
2019-02-24T04:16:52.288Z,103606.09
2019-02-24T04:19:21.402Z,103601.07
2019-02-24T04:21:50.529Z,103602.23
2019-02-24T04:24:19.657Z,103599.86
2019-02-24T04:26:48.774Z,103608.41
2019-02-24T04:29:24.535Z,103604.97
2019-02-24T04:31:48.742Z,103600.84
2019-02-24T04:34:17.862Z,103596.12
2019-02-24T04:36:46.984Z,103591.86
2019-02-24T04:39:16.112Z,103595.89
2019-02-24T04:41:45.237Z,103604.86
2019-02-24T04:44:15.418Z,103604.99
2019-02-24T04:46:44.533Z,103606.56
2019-02-24T04:49:13.651Z,103619.37
2019-02-24T04:51:43.003Z,103612.80
2019-02-24T04:54:12.118Z,103612.33
2019-02-24T04:56:41.247Z,103611.83
2019-02-24T04:59:10.363Z,103613.23
2019-02-24T05:01:39.484Z,103622.23
2019-02-24T05:04:08.604Z,103619.13
2019-02-24T05:06:37.729Z,103618.73
2019-02-24T05:09:06.848Z,103615.23
2019-02-24T05:11:35.979Z,103616.94
2019-02-24T05:14:05.095Z,103612.13
2019-02-24T05:16:34.222Z,103612.73
2019-02-24T05:19:03.671Z,103605.50
2019-02-24T05:21:32.799Z,103604.88
2019-02-24T05:24:01.911Z,103603.88
2019-02-24T05:26:31.033Z,103600.05
2019-02-24T05:29:00.180Z,103595.98
2019-02-24T05:31:29.569Z,103594.95
2019-02-24T05:33:59.995Z,103591.92
2019-02-24T05:36:31.311Z,103589.66
2019-02-24T05:39:00.902Z,103590.22
2019-02-24T05:41:31.648Z,103582.93
2019-02-24T05:44:00.774Z,103587.23
2019-02-24T05:46:29.911Z,103588.03
2019-02-24T05:48:59.030Z,103583.20
2019-02-24T05:51:28.156Z,103595.09
2019-02-24T05:53:57.575Z,103596.38
2019-02-24T05:56:26.700Z,103588.86
2019-02-24T05:58:55.820Z,103597.78
2019-02-24T06:01:24.958Z,103586.99
2019-02-24T06:03:54.081Z,103588.23
2019-02-24T06:06:23.280Z,103585.13
2019-02-24T06:08:52.411Z,103592.76
2019-02-24T06:11:21.541Z,103583.89
2019-02-24T06:13:52.164Z,103585.46
2019-02-24T06:16:21.452Z,103587.23
2019-02-24T06:18:50.900Z,103593.82
2019-02-24T06:21:20.110Z,103592.29
2019-02-24T06:23:49.252Z,103592.42
2019-02-24T06:26:18.373Z,103599.16
2019-02-24T06:28:47.479Z,103602.68
2019-02-24T06:31:17.050Z,103598.28
2019-02-24T06:33:46.614Z,103593.82
2019-02-24T06:36:15.938Z,103593.09
2019-02-24T06:38:45.266Z,103601.28
2019-02-24T06:41:14.593Z,103595.98
2019-02-24T06:43:43.924Z,103599.41
2019-02-24T06:46:13.485Z,103608.00
2019-02-24T06:48:43.128Z,103603.63
2019-02-24T06:51:12.621Z,103604.09
2019-02-24T06:53:41.955Z,103599.33
2019-02-24T06:56:11.283Z,103595.66
2019-02-24T06:58:40.947Z,103601.92
2019-02-24T07:01:10.279Z,103595.33
2019-02-24T07:03:39.752Z,103592.83
2019-02-24T07:06:09.082Z,103583.22
2019-02-24T07:08:38.423Z,103587.88
2019-02-24T07:11:07.795Z,103588.51
2019-02-24T07:13:37.431Z,103588.84
2019-02-24T07:16:07.090Z,103579.30
2019-02-24T07:18:36.710Z,103582.13
2019-02-24T07:21:06.046Z,103589.92
2019-02-24T07:23:35.395Z,103597.45
2019-02-24T07:26:04.738Z,103603.98
2019-02-24T07:28:34.082Z,103611.22
2019-02-24T07:31:03.414Z,103613.88
2019-02-24T07:33:32.774Z,103617.38
2019-02-24T07:36:02.101Z,103627.61
2019-02-24T07:38:31.523Z,103626.24
2019-02-24T07:41:00.851Z,103625.91
2019-02-24T07:43:30.360Z,103629.77
2019-02-24T07:46:00.026Z,103630.50
2019-02-24T07:48:29.666Z,103639.92
2019-02-24T07:50:59.968Z,103643.84
2019-02-24T07:53:29.543Z,103645.61
2019-02-24T07:55:58.889Z,103657.37
2019-02-24T07:58:28.302Z,103658.20
2019-02-24T08:00:57.663Z,103660.53
2019-02-24T08:03:27.223Z,103660.45
2019-02-24T08:05:56.554Z,103661.67
2019-02-24T08:08:25.885Z,103658.72
2019-02-24T08:10:55.225Z,103663.57
2019-02-24T08:13:24.614Z,103664.70
2019-02-24T08:15:54.202Z,103665.02
2019-02-24T08:18:23.808Z,103668.34
2019-02-24T08:20:53.409Z,103663.05
2019-02-24T08:23:22.941Z,103664.52
2019-02-24T08:25:52.343Z,103667.56
2019-02-24T08:28:21.905Z,103665.73
2019-02-24T08:30:51.237Z,103672.59
2019-02-24T08:33:20.799Z,103677.63
2019-02-24T08:35:50.363Z,103678.83
2019-02-24T08:38:19.695Z,103689.47
2019-02-24T08:40:49.026Z,103695.40
2019-02-24T08:43:18.352Z,103703.03
2019-02-24T08:45:47.691Z,103710.79
2019-02-24T08:48:19.101Z,103711.88
2019-02-24T08:50:48.342Z,103703.59
2019-02-24T08:53:17.686Z,103703.50
2019-02-24T08:55:47.027Z,103708.12
2019-02-24T08:58:16.358Z,103694.92
2019-02-24T09:00:50.980Z,103697.92
2019-02-24T09:03:16.716Z,103691.92
2019-02-24T09:05:46.304Z,103693.25
2019-02-24T09:08:15.636Z,103693.45
2019-02-24T09:10:45.210Z,103704.89
2019-02-24T09:13:14.538Z,103696.47
2019-02-24T09:15:44.136Z,103695.67
2019-02-24T09:18:13.469Z,103695.28
2019-02-24T09:20:42.804Z,103696.16
2019-02-24T09:23:12.129Z,103697.38
2019-02-24T09:25:41.468Z,103693.44
2019-02-24T09:28:10.796Z,103683.20
2019-02-24T09:30:41.721Z,103677.27
2019-02-24T09:33:11.078Z,103687.91
2019-02-24T09:35:40.427Z,103680.23
2019-02-24T09:38:09.804Z,103692.59
2019-02-24T09:40:39.134Z,103691.37
2019-02-24T09:43:08.470Z,103705.52
2019-02-24T09:45:37.809Z,103697.96
2019-02-24T09:48:07.133Z,103703.47
2019-02-24T09:50:36.462Z,103697.82
2019-02-24T09:53:06.059Z,103702.90
2019-02-24T09:55:35.391Z,103696.92
2019-02-24T09:58:04.975Z,103701.13
2019-02-24T10:00:34.299Z,103702.98
2019-02-24T10:03:03.617Z,103699.17
2019-02-24T10:05:32.947Z,103698.41
2019-02-24T10:08:02.637Z,103707.61
2019-02-24T10:10:31.955Z,103698.72
2019-02-24T10:13:01.280Z,103703.92
2019-02-24T10:15:30.952Z,103705.58
2019-02-24T10:18:00.284Z,103706.13
2019-02-24T10:20:29.611Z,103703.63
2019-02-24T10:22:58.956Z,103694.09
2019-02-24T10:25:28.568Z,103696.92
2019-02-24T10:27:58.163Z,103696.65
2019-02-24T10:30:27.485Z,103692.80
2019-02-24T10:32:56.815Z,103691.20
2019-02-24T10:35:26.151Z,103692.61
2019-02-24T10:37:55.724Z,103695.00
2019-02-24T10:40:25.049Z,103699.36
2019-02-24T10:42:54.452Z,103696.16
2019-02-24T10:45:23.774Z,103700.52
2019-02-24T10:47:53.118Z,103705.20
2019-02-24T10:50:22.439Z,103707.75
2019-02-24T10:52:52.025Z,103703.19
2019-02-24T10:55:21.343Z,103712.83
2019-02-24T10:57:51.145Z,103704.44
2019-02-24T11:00:22.727Z,103704.55
2019-02-24T11:02:52.130Z,103702.66
2019-02-24T11:05:21.454Z,103698.92
2019-02-24T11:07:50.865Z,103694.82
2019-02-24T11:10:20.196Z,103701.55
2019-02-24T11:12:49.761Z,103696.77
2019-02-24T11:15:19.381Z,103705.72
2019-02-24T11:17:48.723Z,103710.38
2019-02-24T11:20:18.690Z,103702.06
2019-02-24T11:22:48.282Z,103690.39
2019-02-24T11:25:17.610Z,103691.98
2019-02-24T11:27:46.962Z,103688.05
2019-02-24T11:30:16.390Z,103692.68
2019-02-24T11:32:45.689Z,103689.85
2019-02-24T11:35:15.255Z,103682.22
2019-02-24T11:37:44.581Z,103692.36
2019-02-24T11:40:15.907Z,103689.70
2019-02-24T11:42:45.541Z,103687.20
2019-02-24T11:45:15.118Z,103690.16
2019-02-24T11:47:44.676Z,103695.03
2019-02-24T11:50:14.279Z,103688.87
2019-02-24T11:52:43.853Z,103683.73
2019-02-24T11:55:13.356Z,103683.59
2019-02-24T11:57:42.682Z,103672.55
2019-02-24T12:00:14.451Z,103670.66
2019-02-24T12:02:43.862Z,103669.95
2019-02-24T12:05:13.331Z,103672.34
2019-02-24T12:07:42.910Z,103671.95
2019-02-24T12:10:12.976Z,103676.77
2019-02-24T12:12:42.354Z,103674.88
2019-02-24T12:15:12.834Z,103673.39
2019-02-24T12:17:43.234Z,103666.02
2019-02-24T12:20:14.578Z,103663.98
2019-02-24T12:22:43.919Z,103664.42
2019-02-24T12:25:15.039Z,103668.77
2019-02-24T12:27:44.354Z,103663.69
2019-02-24T12:30:17.427Z,103655.95
2019-02-24T12:32:46.987Z,103652.16
2019-02-24T12:35:16.396Z,103644.20
2019-02-24T12:37:46.038Z,103654.66
2019-02-24T12:40:16.171Z,103650.34
2019-02-24T12:42:45.749Z,103654.19
2019-02-24T12:45:15.085Z,103643.03
2019-02-24T12:47:44.639Z,103645.23
2019-02-24T12:50:15.614Z,103644.66
2019-02-24T12:52:44.953Z,103645.98
2019-02-24T12:55:14.356Z,103646.30
2019-02-24T12:57:44.055Z,103643.37
2019-02-24T13:00:19.057Z,103644.55
2019-02-24T13:02:48.454Z,103642.21
2019-02-24T13:05:17.788Z,103630.75
2019-02-24T13:07:47.109Z,103635.63
2019-02-24T13:10:18.465Z,103636.52
2019-02-24T13:12:47.788Z,103635.50
2019-02-24T13:15:17.121Z,103625.61
2019-02-24T13:17:46.451Z,103621.20
2019-02-24T13:20:16.028Z,103634.01
2019-02-24T13:22:45.356Z,103635.05
2019-02-24T13:25:15.053Z,103639.02
2019-02-24T13:27:44.378Z,103636.81
2019-02-24T13:30:15.795Z,103632.64
2019-02-24T13:32:45.369Z,103626.73
2019-02-24T13:35:14.697Z,103619.53
2019-02-24T13:37:45.099Z,103613.66
2019-02-24T13:40:15.668Z,103601.89
2019-02-24T13:42:45.042Z,103589.50
2019-02-24T13:45:19.629Z,103588.97
2019-02-24T13:47:48.957Z,103587.94
2019-02-24T13:50:18.287Z,103591.07
2019-02-24T13:52:47.616Z,103591.16
2019-02-24T13:55:16.938Z,103592.87
2019-02-24T13:57:46.496Z,103592.95
2019-02-24T14:00:18.301Z,103595.55
2019-02-24T14:02:47.642Z,103597.58
2019-02-24T14:05:16.970Z,103564.73
2019-02-24T14:07:46.295Z,103564.73
2019-02-24T14:10:18.132Z,103589.52
2019-02-24T14:12:47.465Z,103595.80
2019-02-24T14:15:16.956Z,103562.37
2019-02-24T14:17:46.532Z,103588.19
2019-02-24T14:20:17.195Z,103588.19
2019-02-24T14:22:46.516Z,103579.63
2019-02-24T14:25:16.783Z,103585.78
2019-02-24T14:27:46.116Z,103586.55
2019-02-24T14:30:17.512Z,103586.55
2019-02-24T14:32:46.852Z,103586.17
2019-02-24T14:35:18.651Z,103580.13
2019-02-24T14:37:47.981Z,103578.53
2019-02-24T14:40:17.380Z,103583.67
2019-02-24T14:42:46.785Z,103582.77
2019-02-24T14:45:17.857Z,103585.69
2019-02-24T14:47:47.187Z,103590.90
2019-02-24T14:50:16.507Z,103594.37
2019-02-24T14:52:46.074Z,103583.38
2019-02-24T14:55:16.246Z,103582.94
2019-02-24T14:57:45.804Z,103596.92
2019-02-24T15:00:20.263Z,103596.50
2019-02-24T15:02:49.891Z,103596.09
2019-02-24T15:05:19.217Z,103601.27
2019-02-24T15:07:48.558Z,103592.30
2019-02-24T15:10:22.010Z,103595.63
2019-02-24T15:12:51.564Z,103599.44
2019-02-24T15:15:26.426Z,103604.89
2019-02-24T15:17:56.654Z,103600.92
2019-02-24T15:20:25.554Z,103598.36
2019-02-24T15:22:54.886Z,103593.94
2019-02-24T15:25:24.441Z,103586.84
2019-02-24T15:27:54.019Z,103580.19
2019-02-24T15:30:28.940Z,103572.61
2019-02-24T15:32:58.271Z,103582.81
2019-02-24T15:35:27.898Z,103577.87
2019-02-24T15:37:57.396Z,103586.69
2019-02-24T15:40:26.810Z,103582.60
2019-02-24T15:42:56.444Z,103588.73
2019-02-24T15:45:25.774Z,103594.04
2019-02-24T15:47:55.126Z,103586.44
2019-02-24T15:50:24.461Z,103590.90
2019-02-24T15:52:53.818Z,103594.48
2019-02-24T15:55:23.127Z,103585.14
2019-02-24T15:57:52.702Z,103582.03
2019-02-24T16:00:24.007Z,103582.91
2019-02-24T16:03:01.181Z,103580.28
2019-02-24T16:05:24.657Z,103574.45
2019-02-24T16:07:54.261Z,103578.92
2019-02-24T16:10:23.767Z,103573.58
2019-02-24T16:12:53.659Z,103578.03
2019-02-24T16:15:27.485Z,103578.92
2019-02-24T16:17:56.887Z,103581.10
2019-02-24T16:20:28.555Z,103583.23
2019-02-24T16:22:57.951Z,103581.72
2019-02-24T16:25:27.537Z,103584.91
2019-02-24T16:27:56.936Z,103586.87
2019-02-24T16:30:26.283Z,103589.23
2019-02-24T16:32:55.687Z,103592.91
2019-02-24T16:35:25.035Z,103589.82
2019-02-24T16:37:54.424Z,103587.55
2019-02-24T16:40:29.005Z,103585.75
2019-02-24T16:42:58.414Z,103588.45
2019-02-24T16:45:27.751Z,103581.80
2019-02-24T16:47:57.151Z,103585.33
2019-02-24T16:50:26.555Z,103592.20
2019-02-24T16:52:55.887Z,103587.52
2019-02-24T16:55:25.230Z,103586.47
2019-02-24T16:57:54.561Z,103579.48
2019-02-24T17:00:29.186Z,103584.12
2019-02-24T17:02:58.567Z,103590.09
2019-02-24T17:05:28.130Z,103598.15
2019-02-24T17:07:57.672Z,103602.30
2019-02-24T17:10:28.347Z,103598.72
2019-02-24T17:12:57.838Z,103599.30
2019-02-24T17:15:27.421Z,103590.69
2019-02-24T17:17:56.970Z,103587.84
2019-02-24T17:20:30.450Z,103592.78
2019-02-24T17:23:00.024Z,103592.08
2019-02-24T17:25:29.358Z,103594.25
2019-02-24T17:27:58.679Z,103596.62
2019-02-24T17:30:28.979Z,103595.47
2019-02-24T17:32:58.311Z,103602.86
2019-02-24T17:35:27.649Z,103601.55
2019-02-24T17:37:56.983Z,103603.59
2019-02-24T17:40:26.317Z,103598.66
2019-02-24T17:42:55.646Z,103605.16
2019-02-24T17:45:24.978Z,103602.80
2019-02-24T17:47:54.314Z,103605.15
2019-02-24T17:50:23.651Z,103602.72
2019-02-24T17:52:53.011Z,103601.32
2019-02-24T17:55:22.810Z,103601.93
2019-02-24T17:57:52.444Z,103608.17
2019-02-24T18:00:43.127Z,103606.13
2019-02-24T18:03:12.670Z,103613.41
2019-02-24T18:05:42.063Z,103609.69
2019-02-24T18:08:11.401Z,103607.82
2019-02-24T18:10:40.743Z,103599.47
2019-02-24T18:13:10.075Z,103601.91
2019-02-24T18:15:39.727Z,103602.34
2019-02-24T18:18:09.058Z,103602.23
2019-02-24T18:20:39.371Z,103599.09
2019-02-24T18:23:10.005Z,103598.17
2019-02-24T18:25:40.314Z,103596.81
2019-02-24T18:28:09.642Z,103594.16
2019-02-24T18:30:39.288Z,103594.42
2019-02-24T18:33:08.621Z,103596.47
2019-02-24T18:35:37.957Z,103599.34
2019-02-24T18:38:07.538Z,103597.39
2019-02-24T18:40:36.879Z,103592.66
2019-02-24T18:43:06.215Z,103589.91
2019-02-24T18:45:35.781Z,103594.99
2019-02-24T18:48:05.116Z,103594.83
2019-02-24T18:50:34.689Z,103595.19
2019-02-24T18:53:04.033Z,103602.41
2019-02-24T18:55:33.433Z,103600.45
2019-02-24T18:58:02.765Z,103616.34
2019-02-24T19:00:32.667Z,103619.11
2019-02-24T19:03:02.155Z,103626.98
2019-02-24T19:05:31.491Z,103627.16
2019-02-24T19:08:00.827Z,103631.09
2019-02-24T19:10:30.159Z,103634.13
2019-02-24T19:12:59.494Z,103632.16
2019-02-24T19:15:29.795Z,103637.65
2019-02-24T19:17:59.136Z,103637.31
2019-02-24T19:20:28.506Z,103633.80
2019-02-24T19:22:57.857Z,103637.73
2019-02-24T19:25:27.188Z,103630.29
2019-02-24T19:27:56.514Z,103634.28
2019-02-24T19:30:25.836Z,103642.20
2019-02-24T19:32:55.238Z,103645.16
2019-02-24T19:35:24.566Z,103647.59
2019-02-24T19:37:53.900Z,103650.50
2019-02-24T19:40:23.295Z,103650.97
2019-02-24T19:42:52.676Z,103656.17
2019-02-24T19:45:26.653Z,103650.28
2019-02-24T19:47:56.234Z,103652.72
2019-02-24T19:50:25.659Z,103657.58
2019-02-24T19:52:55.233Z,103655.91
2019-02-24T19:55:24.805Z,103652.77
2019-02-24T19:57:54.144Z,103655.95
2019-02-24T20:00:24.706Z,103666.52
2019-02-24T20:02:54.114Z,103655.31
2019-02-24T20:05:23.512Z,103658.55
2019-02-24T20:07:54.746Z,103655.56
2019-02-24T20:10:27.798Z,103653.42
2019-02-24T20:12:57.208Z,103650.02
2019-02-24T20:15:26.958Z,103646.32
2019-02-24T20:17:56.288Z,103651.84
2019-02-24T20:20:25.974Z,103650.64
2019-02-24T20:22:55.302Z,103643.43
2019-02-24T20:25:24.751Z,103646.86
2019-02-24T20:27:54.036Z,103645.36
2019-02-24T20:30:30.818Z,103644.39
2019-02-24T20:33:00.144Z,103642.89
2019-02-24T20:35:29.479Z,103647.13
2019-02-24T20:37:59.161Z,103648.55
2019-02-24T20:40:28.593Z,103649.08
2019-02-24T20:42:57.927Z,103643.47
2019-02-24T20:45:29.198Z,103641.89
2019-02-24T20:47:58.615Z,103642.91
2019-02-24T20:50:30.433Z,103644.84
2019-02-24T20:52:59.804Z,103645.18
2019-02-24T20:55:29.138Z,103644.00
2019-02-24T20:57:58.504Z,103644.42
2019-02-24T21:00:33.436Z,103652.86
2019-02-24T21:03:02.994Z,103647.23
2019-02-24T21:05:32.334Z,103645.16
2019-02-24T21:08:01.670Z,103650.09
2019-02-24T21:10:31.073Z,103654.09
2019-02-24T21:13:00.742Z,103653.31
2019-02-24T21:15:30.306Z,103654.81
2019-02-24T21:17:59.638Z,103655.92
2019-02-24T21:20:33.564Z,103659.95
2019-02-24T21:23:02.983Z,103655.45
2019-02-24T21:25:32.323Z,103658.66
2019-02-24T21:28:01.726Z,103664.28
2019-02-24T21:30:31.841Z,103671.89
2019-02-24T21:33:01.268Z,103665.77
2019-02-24T21:35:31.584Z,103669.09
2019-02-24T21:38:00.941Z,103673.38
2019-02-24T21:40:31.384Z,103675.00
2019-02-24T21:43:00.779Z,103670.25
2019-02-24T21:45:30.986Z,103677.50
2019-02-24T21:48:00.319Z,103675.17
2019-02-24T21:50:29.719Z,103670.15
2019-02-24T21:52:59.303Z,103672.86
2019-02-24T21:55:28.662Z,103669.27
2019-02-24T21:57:57.990Z,103674.27
2019-02-24T22:00:27.636Z,103670.75
2019-02-24T22:02:57.214Z,103670.33
2019-02-24T22:05:26.596Z,103671.61
2019-02-24T22:07:55.979Z,103678.62
2019-02-24T22:10:25.270Z,103679.70
2019-02-24T22:12:54.598Z,103682.12
2019-02-24T22:15:25.805Z,103680.48
2019-02-24T22:17:55.138Z,103674.37
2019-02-24T22:20:24.472Z,103676.77
2019-02-24T22:22:53.823Z,103680.35
2019-02-24T22:25:23.164Z,103687.45
2019-02-24T22:27:52.509Z,103683.59
2019-02-24T22:30:22.897Z,103687.10
2019-02-24T22:32:52.241Z,103694.23
2019-02-24T22:35:21.574Z,103692.71
2019-02-24T22:37:50.919Z,103700.03
2019-02-24T22:40:20.342Z,103696.98
2019-02-24T22:42:49.928Z,103693.97
2019-02-24T22:45:20.272Z,103684.77
2019-02-24T22:47:49.784Z,103688.59
2019-02-24T22:50:19.117Z,103688.86
2019-02-24T22:52:48.494Z,103690.28
2019-02-24T22:55:19.009Z,103680.28
2019-02-24T22:57:48.341Z,103682.44
2019-02-24T23:00:52.345Z,103683.09
2019-02-24T23:03:32.029Z,103687.67
2019-02-24T23:06:01.606Z,103682.41
2019-02-24T23:08:30.942Z,103680.39
2019-02-24T23:11:00.276Z,103676.48
2019-02-24T23:13:29.619Z,103688.67
2019-02-24T23:15:58.991Z,103686.41
2019-02-24T23:18:28.341Z,103690.09
2019-02-24T23:20:57.701Z,103686.16
2019-02-24T23:23:27.038Z,103687.73
2019-02-24T23:25:56.367Z,103683.33
2019-02-24T23:28:26.094Z,103684.56
2019-02-24T23:30:55.501Z,103693.06
2019-02-24T23:33:24.835Z,103695.70
2019-02-24T23:35:54.166Z,103696.41
2019-02-24T23:38:23.500Z,103690.97
2019-02-24T23:40:53.117Z,103696.73
2019-02-24T23:43:22.456Z,103696.41
2019-02-24T23:45:51.800Z,103693.73
2019-02-24T23:48:21.121Z,103699.59
2019-02-24T23:50:50.469Z,103707.95
2019-02-24T23:53:19.799Z,103705.52
2019-02-24T23:55:49.374Z,103707.67
2019-02-24T23:58:18.714Z,103709.43
